createdAt,value
2023-04-21T00:01:14.931Z,102039.13
2023-04-21T00:03:42.132Z,101979.66
2023-04-21T00:06:09.615Z,102019.44
2023-04-21T00:08:42.563Z,102033.75
2023-04-21T00:11:09.763Z,102024.47
2023-04-21T00:13:36.731Z,101919.03
2023-04-21T00:16:03.795Z,102015.91
2023-04-21T00:18:30.645Z,102039.13
2023-04-21T00:20:57.251Z,102039.13
2023-04-21T00:23:23.943Z,101993.63
2023-04-21T00:25:50.683Z,102030.34
2023-04-21T00:28:17.313Z,102034.19
2023-04-21T00:30:43.952Z,101979.75
2023-04-21T00:33:10.704Z,102027.16
2023-04-21T00:35:37.267Z,101903.06
2023-04-21T00:38:03.811Z,102021.53
2023-04-21T00:40:30.521Z,102031.06
2023-04-21T00:42:57.083Z,102020.66
2023-04-21T00:45:23.738Z,102020.03
2023-04-21T00:47:50.664Z,102015.47
2023-04-21T00:50:35.937Z,102024.66
2023-04-21T00:53:03.067Z,102020.13
2023-04-21T00:55:31.382Z,102015.66
2023-04-21T00:57:58.316Z,102008.88
2023-04-21T01:00:25.009Z,102016.31
2023-04-21T01:02:51.960Z,102016.06
2023-04-21T01:05:19.118Z,101973.34
2023-04-21T01:07:46.310Z,101943.59
2023-04-21T01:10:12.993Z,101986.16
2023-04-21T01:12:44.420Z,102004.72
2023-04-21T01:15:16.199Z,102012.25
2023-04-21T01:17:44.157Z,102010.16
2023-04-21T01:20:13.509Z,101989.69
2023-04-21T01:22:47.976Z,102006.44
2023-04-21T01:25:15.214Z,101946.13
2023-04-21T01:27:41.817Z,102004.78
2023-04-21T01:30:10.182Z,102012.16
2023-04-21T01:32:37.312Z,101944.28
2023-04-21T01:35:04.334Z,102006.53
2023-04-21T01:37:32.924Z,102004.28
2023-04-21T01:40:02.339Z,102002.38
2023-04-21T01:42:30.627Z,101998.66
2023-04-21T01:44:57.545Z,101979.91
2023-04-21T01:47:25.592Z,101932.41
2023-04-21T01:49:53.252Z,101997.59
2023-04-21T01:52:20.149Z,102000.63
2023-04-21T01:54:47.044Z,101994.13
2023-04-21T01:57:13.703Z,101990.69
2023-04-21T01:59:40.440Z,101943.53
2023-04-21T02:02:07.428Z,101992.56
2023-04-21T02:04:34.375Z,101990.47
2023-04-21T02:07:01.255Z,101989.28
2023-04-21T02:09:27.946Z,101983.94
2023-04-21T02:11:58.427Z,101959.50
2023-04-21T02:14:26.132Z,101954.94
2023-04-21T02:16:53.120Z,101945.88
2023-04-21T02:19:20.083Z,101986.25
2023-04-21T02:21:47.036Z,101928.91
2023-04-21T02:24:13.681Z,101979.13
2023-04-21T02:26:40.281Z,101962.19
2023-04-21T02:29:06.957Z,101964.16
2023-04-21T02:31:40.413Z,101984.25
2023-04-21T02:34:13.005Z,101982.28
2023-04-21T02:36:39.641Z,101974.41
2023-04-21T02:39:06.254Z,101904.25
2023-04-21T02:41:32.926Z,101969.53
2023-04-21T02:43:59.474Z,101973.69
2023-04-21T02:46:26.213Z,101966.78
2023-04-21T02:48:52.773Z,101976.44
2023-04-21T02:51:19.466Z,101981.75
2023-04-21T02:53:46.018Z,101975.59
2023-04-21T02:56:12.671Z,101954.72
2023-04-21T02:58:39.666Z,101982.09
2023-04-21T03:01:06.685Z,101958.78
2023-04-21T03:03:33.748Z,101949.16
2023-04-21T03:06:01.889Z,101981.31
2023-04-21T03:08:28.796Z,101979.56
2023-04-21T03:10:55.854Z,101932.63
2023-04-21T03:13:23.596Z,101971.50
2023-04-21T03:15:51.357Z,101974.91
2023-04-21T03:18:18.154Z,101902.34
2023-04-21T03:20:44.892Z,101970.31
2023-04-21T03:23:11.531Z,101971.09
2023-04-21T03:25:39.998Z,101920.31
2023-04-21T03:28:06.592Z,101918.06
2023-04-21T03:30:33.301Z,101970.66
2023-04-21T03:33:00.318Z,101964.31
2023-04-21T03:35:27.260Z,101968.75
2023-04-21T03:37:54.253Z,101957.75
2023-04-21T03:40:20.860Z,101959.06
2023-04-21T03:42:47.603Z,101965.19
2023-04-21T03:45:14.241Z,101965.97
2023-04-21T03:47:40.948Z,101957.03
2023-04-21T03:50:08.180Z,101922.47
2023-04-21T03:52:34.769Z,101934.34
2023-04-21T03:55:01.679Z,101962.09
2023-04-21T03:57:28.339Z,101912.91
2023-04-21T03:59:54.941Z,101949.34
2023-04-21T04:02:21.622Z,101878.28
2023-04-21T04:04:48.917Z,101959.22
2023-04-21T04:07:16.982Z,101961.13
2023-04-21T04:09:44.151Z,101882.06
2023-04-21T04:12:11.823Z,101942.06
2023-04-21T04:14:39.644Z,101958.25
2023-04-21T04:17:06.691Z,101938.59
2023-04-21T04:19:33.356Z,101943.72
2023-04-21T04:22:01.381Z,101900.75
2023-04-21T04:24:28.477Z,101952.81
2023-04-21T04:26:55.874Z,101899.56
2023-04-21T04:29:22.798Z,101924.50
2023-04-21T04:31:52.906Z,101934.69
2023-04-21T04:34:19.826Z,101914.44
2023-04-21T04:36:48.238Z,101929.63
2023-04-21T04:39:16.565Z,101949.34
2023-04-21T04:41:43.490Z,101942.16
2023-04-21T04:44:11.393Z,101950.56
2023-04-21T04:46:39.502Z,101897.22
2023-04-21T04:49:06.145Z,101956.72
2023-04-21T04:51:32.899Z,101905.81
2023-04-21T04:53:59.464Z,101961.47
2023-04-21T04:56:26.151Z,101948.13
2023-04-21T04:58:52.869Z,101953.38
2023-04-21T05:01:19.442Z,101961.97
2023-04-21T05:03:46.267Z,101955.44
2023-04-21T05:06:14.259Z,101936.94
2023-04-21T05:08:41.761Z,101964.31
2023-04-21T05:11:09.026Z,101957.69
2023-04-21T05:13:37.453Z,101961.00
2023-04-21T05:16:06.562Z,101943.00
2023-04-21T05:18:33.230Z,101956.81
2023-04-21T05:20:59.901Z,101954.63
2023-04-21T05:23:26.616Z,101910.31
2023-04-21T05:25:53.201Z,101949.31
2023-04-21T05:28:19.783Z,101952.91
2023-04-21T05:30:46.429Z,101938.75
2023-04-21T05:33:13.180Z,101939.84
2023-04-21T05:35:40.044Z,101938.81
2023-04-21T05:38:06.883Z,101939.88
2023-04-21T05:40:33.501Z,101913.56
2023-04-21T05:43:00.225Z,101935.38
2023-04-21T05:45:26.901Z,101879.41
2023-04-21T05:47:53.640Z,101957.00
2023-04-21T05:50:20.500Z,101959.06
2023-04-21T05:52:47.223Z,101957.03
2023-04-21T05:55:13.843Z,101905.97
2023-04-21T05:57:40.510Z,101955.19
2023-04-21T06:00:07.892Z,101943.63
2023-04-21T06:02:34.668Z,101956.47
2023-04-21T06:05:01.771Z,101890.25
2023-04-21T06:07:28.687Z,101948.53
2023-04-21T06:09:55.391Z,101950.75
2023-04-21T06:12:22.042Z,101950.69
2023-04-21T06:14:48.698Z,101946.31
2023-04-21T06:17:17.300Z,101944.69
2023-04-21T06:19:43.937Z,101870.25
2023-04-21T06:22:10.731Z,101942.69
2023-04-21T06:24:37.366Z,101945.38
2023-04-21T06:27:04.412Z,101943.03
2023-04-21T06:29:31.158Z,101943.03
2023-04-21T06:31:57.864Z,101943.69
2023-04-21T06:34:24.591Z,101938.47
2023-04-21T06:36:51.247Z,101938.44
2023-04-21T06:39:17.966Z,101917.53
2023-04-21T06:41:44.577Z,101880.47
2023-04-21T06:44:14.228Z,101922.81
2023-04-21T06:46:41.656Z,101934.56
2023-04-21T06:49:12.034Z,101891.47
2023-04-21T06:51:38.969Z,101925.06
2023-04-21T06:54:06.158Z,101923.31
2023-04-21T06:56:33.149Z,101921.69
2023-04-21T06:58:59.739Z,101916.19
2023-04-21T07:01:26.587Z,101911.66
2023-04-21T07:03:53.471Z,101916.91
2023-04-21T07:06:20.319Z,101919.78
2023-04-21T07:08:47.244Z,101862.78
2023-04-21T07:11:13.778Z,101912.25
2023-04-21T07:13:40.462Z,101911.63
2023-04-21T07:16:07.169Z,101918.28
2023-04-21T07:18:34.947Z,101843.31
2023-04-21T07:21:04.730Z,101888.31
2023-04-21T07:23:31.628Z,101916.56
2023-04-21T07:25:58.444Z,101753.69
2023-04-21T07:29:06.616Z,101900.06
2023-04-21T07:31:34.250Z,101847.75
2023-04-21T07:34:10.538Z,101901.31
2023-04-21T07:36:38.327Z,101910.38
2023-04-21T07:39:04.928Z,101903.84
2023-04-21T07:41:31.813Z,101890.00
2023-04-21T07:43:58.348Z,101903.28
2023-04-21T07:46:30.358Z,101898.13
2023-04-21T07:48:57.938Z,101901.22
2023-04-21T07:51:25.669Z,101902.09
2023-04-21T07:53:52.337Z,101848.94
2023-04-21T07:56:19.081Z,101887.56
2023-04-21T07:58:45.660Z,101881.03
2023-04-21T08:01:12.358Z,101886.19
2023-04-21T08:03:39.313Z,101837.09
2023-04-21T08:06:06.511Z,101877.44
2023-04-21T08:08:33.490Z,101885.50
2023-04-21T08:11:00.050Z,101884.03
2023-04-21T08:13:26.686Z,101876.59
2023-04-21T08:15:54.332Z,101883.94
2023-04-21T08:18:22.791Z,101855.78
2023-04-21T08:20:49.564Z,101884.97
2023-04-21T08:23:16.428Z,101825.91
2023-04-21T08:25:43.069Z,101841.56
2023-04-21T08:28:09.869Z,101884.84
2023-04-21T08:30:36.428Z,101813.00
2023-04-21T08:33:03.124Z,101862.34
2023-04-21T08:35:29.806Z,101873.03
2023-04-21T08:37:57.752Z,101855.13
2023-04-21T08:40:33.344Z,101791.59
2023-04-21T08:43:00.049Z,101858.38
2023-04-21T08:45:27.806Z,101857.53
2023-04-21T08:47:56.284Z,101860.31
2023-04-21T08:50:27.660Z,101854.59
2023-04-21T08:52:58.085Z,101825.34
2023-04-21T08:55:31.667Z,101852.63
2023-04-21T08:57:58.446Z,101827.88
2023-04-21T09:00:25.220Z,101841.19
2023-04-21T09:03:00.874Z,101853.13
2023-04-21T09:05:34.091Z,101804.97
2023-04-21T09:08:14.841Z,101761.16
2023-04-21T09:10:45.258Z,101847.69
2023-04-21T09:13:12.094Z,101822.63
2023-04-21T09:15:42.930Z,101802.75
2023-04-21T09:18:17.984Z,101841.09
2023-04-21T09:20:46.452Z,101834.63
2023-04-21T09:23:13.226Z,101835.34
2023-04-21T09:25:42.384Z,101846.44
2023-04-21T09:28:14.131Z,101838.16
2023-04-21T09:30:42.908Z,101835.84
2023-04-21T09:33:29.042Z,101829.41
2023-04-21T09:36:01.166Z,101834.75
2023-04-21T09:38:29.437Z,101811.69
2023-04-21T09:40:59.281Z,101829.38
2023-04-21T09:43:26.443Z,101801.44
2023-04-21T09:45:56.102Z,101820.81
2023-04-21T09:48:26.233Z,101826.72
2023-04-21T09:53:28.233Z,101807.06
2023-04-21T09:55:58.660Z,101768.09
2023-04-21T09:58:31.446Z,101732.22
2023-04-21T10:00:58.730Z,101808.25
2023-04-21T10:03:29.072Z,101800.00
2023-04-21T10:05:56.205Z,101773.34
2023-04-21T10:08:23.271Z,101745.81
2023-04-21T10:10:50.816Z,101796.34
2023-04-21T10:13:18.854Z,101782.31
2023-04-21T10:15:45.546Z,101792.44
2023-04-21T10:18:16.149Z,101779.09
2023-04-21T10:21:02.192Z,101747.19
2023-04-21T10:23:36.337Z,101763.19
2023-04-21T10:26:08.600Z,101769.38
2023-04-21T10:28:44.971Z,101774.66
2023-04-21T10:31:32.637Z,101758.75
2023-04-21T10:34:05.520Z,101767.81
2023-04-21T10:36:35.107Z,101767.34
2023-04-21T10:39:06.320Z,101717.03
2023-04-21T10:41:34.727Z,101758.34
2023-04-21T10:44:10.216Z,101755.41
2023-04-21T10:46:48.198Z,101749.13
2023-04-21T10:49:26.487Z,101759.03
2023-04-21T10:52:05.643Z,101745.47
2023-04-21T10:54:47.265Z,101737.34
2023-04-21T10:57:19.623Z,101740.47
2023-04-21T10:59:47.712Z,101670.59
2023-04-21T11:02:16.694Z,101691.13
2023-04-21T11:04:50.109Z,101672.34
2023-04-21T11:07:23.109Z,101707.22
2023-04-21T11:10:19.613Z,101711.75
2023-04-21T11:12:46.479Z,101627.31
2023-04-21T11:15:15.746Z,101695.47
2023-04-21T11:17:47.239Z,101701.25
2023-04-21T11:20:14.088Z,101646.97
2023-04-21T11:22:40.715Z,101688.50
2023-04-21T11:25:18.148Z,101683.72
2023-04-21T11:27:54.534Z,101692.19
2023-04-21T11:30:21.322Z,101669.19
2023-04-21T11:32:55.061Z,101670.03
2023-04-21T11:35:21.706Z,101668.22
2023-04-21T11:37:52.013Z,101658.09
2023-04-21T11:40:19.348Z,101656.16
2023-04-21T11:42:46.391Z,101655.38
2023-04-21T11:45:22.095Z,101598.66
2023-04-21T11:47:49.346Z,101610.38
2023-04-21T11:50:32.498Z,101642.84
2023-04-21T11:52:59.121Z,101649.25
2023-04-21T11:55:25.904Z,101642.78
2023-04-21T11:57:52.575Z,101640.81
2023-04-21T12:00:20.096Z,101580.34
2023-04-21T12:02:55.971Z,101631.81
2023-04-21T12:05:23.332Z,101630.03
2023-04-21T12:07:52.065Z,101598.63
2023-04-21T12:10:21.106Z,101613.31
2023-04-21T12:12:48.326Z,101609.81
2023-04-21T12:15:20.390Z,101569.75
2023-04-21T12:17:49.098Z,101570.72
2023-04-21T12:20:17.606Z,101609.25
2023-04-21T12:22:45.228Z,101600.34
2023-04-21T12:25:11.796Z,101590.41
2023-04-21T12:27:38.512Z,101589.63
2023-04-21T12:30:06.259Z,101593.34
2023-04-21T12:32:33.079Z,101590.16
2023-04-21T12:35:00.751Z,101574.72
2023-04-21T12:37:27.415Z,101591.16
2023-04-21T12:39:54.106Z,101577.44
2023-04-21T12:42:20.812Z,101571.13
2023-04-21T12:44:47.451Z,101578.16
2023-04-21T12:47:14.108Z,101577.28
2023-04-21T12:49:41.847Z,101583.47
2023-04-21T12:52:08.559Z,101557.88
2023-04-21T12:54:35.445Z,101563.59
2023-04-21T12:57:02.676Z,101572.75
2023-04-21T12:59:29.642Z,101564.44
2023-04-21T13:01:56.724Z,101557.31
2023-04-21T13:04:23.445Z,101506.13
2023-04-21T13:06:50.255Z,101510.78
2023-04-21T13:09:17.146Z,101491.13
2023-04-21T13:11:43.792Z,101525.84
2023-04-21T13:14:11.080Z,101499.38
2023-04-21T13:16:38.235Z,101534.38
2023-04-21T13:19:05.231Z,101526.03
2023-04-21T13:21:32.866Z,101448.97
2023-04-21T13:23:59.492Z,101525.19
2023-04-21T13:26:27.187Z,101469.53
2023-04-21T13:28:54.100Z,101482.66
2023-04-21T13:31:21.088Z,101516.03
2023-04-21T13:33:47.815Z,101504.13
2023-04-21T13:36:14.571Z,101504.09
2023-04-21T13:38:41.197Z,101489.25
2023-04-21T13:41:08.394Z,101480.69
2023-04-21T13:43:35.257Z,101497.03
2023-04-21T13:46:02.000Z,101503.34
2023-04-21T13:48:30.151Z,101498.06
2023-04-21T13:50:56.961Z,101485.97
2023-04-21T13:53:23.750Z,101487.91
2023-04-21T13:55:50.902Z,101472.66
2023-04-21T13:58:18.083Z,101478.16
2023-04-21T14:00:44.667Z,101462.69
2023-04-21T14:03:12.096Z,101463.22
2023-04-21T14:05:40.293Z,101471.97
2023-04-21T14:08:07.400Z,101445.47
2023-04-21T14:10:34.125Z,101409.22
2023-04-21T14:13:01.036Z,101429.66
2023-04-21T14:15:27.796Z,101408.75
2023-04-21T14:17:54.752Z,101434.41
2023-04-21T14:20:21.413Z,101442.97
2023-04-21T14:22:48.246Z,101409.28
2023-04-21T14:25:15.087Z,101431.00
2023-04-21T14:27:41.867Z,101446.44
2023-04-21T14:30:10.683Z,101438.72
2023-04-21T14:32:37.854Z,101436.69
2023-04-21T14:35:05.686Z,101398.38
2023-04-21T14:37:33.283Z,101416.22
2023-04-21T14:40:00.000Z,101423.16
2023-04-21T14:42:26.708Z,101418.22
2023-04-21T14:44:53.367Z,101410.47
2023-04-21T14:47:21.376Z,101416.41
2023-04-21T14:49:50.008Z,101416.50
2023-04-21T14:52:16.670Z,101397.97
2023-04-21T14:54:43.301Z,101335.50
2023-04-21T14:57:18.847Z,101408.66
2023-04-21T14:59:47.138Z,101396.44
2023-04-21T15:02:14.356Z,101379.75
2023-04-21T15:04:41.355Z,101393.66
2023-04-21T15:07:08.115Z,101385.66
2023-04-21T15:09:36.200Z,101361.31
2023-04-21T15:12:03.344Z,101303.25
2023-04-21T15:14:30.107Z,101382.19
2023-04-21T15:16:56.938Z,101373.69
2023-04-21T15:19:25.532Z,101331.88
2023-04-21T15:21:52.443Z,101355.00
2023-04-21T15:24:19.128Z,101363.00
2023-04-21T15:26:45.799Z,101320.34
2023-04-21T15:29:12.405Z,101354.91
2023-04-21T15:31:40.467Z,101355.06
2023-04-21T15:34:07.162Z,101359.09
2023-04-21T15:36:33.957Z,101322.00
2023-04-21T15:39:00.840Z,101309.22
2023-04-21T15:41:29.660Z,101323.47
2023-04-21T15:43:56.456Z,101336.03
2023-04-21T15:46:23.245Z,101333.84
2023-04-21T15:48:49.962Z,101344.31
2023-04-21T15:51:17.176Z,101336.44
2023-04-21T15:53:47.933Z,101339.41
2023-04-21T15:56:15.700Z,101292.53
2023-04-21T15:58:42.465Z,101336.41
2023-04-21T16:01:09.358Z,101332.22
2023-04-21T16:03:36.547Z,101330.44
2023-04-21T16:06:03.656Z,101275.88
2023-04-21T16:08:31.718Z,101308.41
2023-04-21T16:10:58.520Z,101314.69
2023-04-21T16:13:25.095Z,101283.34
2023-04-21T16:15:52.041Z,101316.31
2023-04-21T16:18:19.026Z,101255.19
2023-04-21T16:20:46.233Z,101303.34
2023-04-21T16:23:13.589Z,101291.91
2023-04-21T16:25:42.632Z,101264.09
2023-04-21T16:28:09.935Z,101323.41
2023-04-21T16:30:36.820Z,101311.06
2023-04-21T16:33:03.511Z,101316.56
2023-04-21T16:35:30.726Z,101305.59
2023-04-21T16:37:57.404Z,101278.47
2023-04-21T16:40:25.324Z,101293.72
2023-04-21T16:42:52.673Z,101296.44
2023-04-21T16:45:19.775Z,101287.56
2023-04-21T16:47:46.619Z,101302.25
2023-04-21T16:50:13.579Z,101231.19
2023-04-21T16:52:40.665Z,101283.28
2023-04-21T16:55:07.689Z,101299.72
2023-04-21T16:57:35.003Z,101247.25
2023-04-21T17:00:02.208Z,101287.97
2023-04-21T17:02:28.858Z,101260.78
2023-04-21T17:04:55.875Z,101288.66
2023-04-21T17:07:22.446Z,101298.81
2023-04-21T17:09:49.178Z,101287.78
2023-04-21T17:12:16.031Z,101292.88
2023-04-21T17:14:46.936Z,101290.03
2023-04-21T17:17:13.771Z,101284.56
2023-04-21T17:19:40.869Z,101246.75
2023-04-21T17:22:07.485Z,101291.56
2023-04-21T17:24:49.010Z,101247.38
2023-04-21T17:27:19.053Z,101296.59
2023-04-21T17:29:45.670Z,101297.56
2023-04-21T17:32:12.407Z,101267.00
2023-04-21T17:34:39.287Z,101294.34
2023-04-21T17:37:06.232Z,101295.34
2023-04-21T17:39:32.965Z,101251.72
2023-04-21T17:41:59.631Z,101298.31
2023-04-21T17:44:26.210Z,101288.28
2023-04-21T17:46:52.745Z,101290.16
2023-04-21T17:49:19.508Z,101294.91
2023-04-21T17:51:46.274Z,101292.94
2023-04-21T17:54:12.894Z,101300.22
2023-04-21T17:56:41.192Z,101225.47
2023-04-21T17:59:08.238Z,101303.25
2023-04-21T18:01:34.944Z,101295.91
2023-04-21T18:04:01.989Z,101242.09
2023-04-21T18:06:28.861Z,101302.78
2023-04-21T18:08:56.119Z,101280.13
2023-04-21T18:11:23.279Z,101295.00
2023-04-21T18:13:50.051Z,101309.19
2023-04-21T18:16:16.778Z,101206.47
2023-04-21T18:18:43.390Z,101313.44
2023-04-21T18:21:09.976Z,101267.53
2023-04-21T18:23:36.540Z,101311.38
2023-04-21T18:26:03.219Z,101307.06
2023-04-21T18:28:30.911Z,101317.59
2023-04-21T18:30:57.926Z,101314.03
2023-04-21T18:33:24.602Z,101254.38
2023-04-21T18:35:51.174Z,101308.47
2023-04-21T18:38:17.929Z,101308.72
2023-04-21T18:40:44.640Z,101267.56
2023-04-21T18:43:11.314Z,101319.97
2023-04-21T18:45:38.884Z,101310.03
2023-04-21T18:48:05.623Z,101307.00
2023-04-21T18:50:32.689Z,101316.19
2023-04-21T18:52:59.497Z,101274.53
2023-04-21T18:55:26.569Z,101236.09
2023-04-21T18:57:53.253Z,101254.19
2023-04-21T19:00:19.923Z,101235.25
2023-04-21T19:02:49.149Z,101317.19
2023-04-21T19:05:16.474Z,101312.13
2023-04-21T19:07:43.136Z,101239.84
2023-04-21T19:10:10.680Z,101254.03
2023-04-21T19:12:37.455Z,101260.53
2023-04-21T19:15:04.649Z,101317.59
2023-04-21T19:17:31.417Z,101235.44
2023-04-21T19:19:58.337Z,101317.50
2023-04-21T19:22:24.993Z,101315.72
2023-04-21T19:24:51.654Z,101255.63
2023-04-21T19:27:18.213Z,101315.81
2023-04-21T19:29:44.874Z,101313.41
2023-04-21T19:32:11.777Z,101319.00
2023-04-21T19:34:38.852Z,101311.63
2023-04-21T19:37:05.932Z,101314.72
2023-04-21T19:39:33.015Z,101178.25
2023-04-21T19:41:59.766Z,101308.88
2023-04-21T19:44:26.628Z,101320.13
2023-04-21T19:46:53.331Z,101277.19
2023-04-21T19:49:20.038Z,101313.56
2023-04-21T19:51:46.693Z,101266.88
2023-04-21T19:54:13.250Z,101310.63
2023-04-21T19:56:40.736Z,101307.81
2023-04-21T19:59:07.524Z,101253.78
2023-04-21T20:01:34.565Z,101305.44
2023-04-21T20:04:01.746Z,101293.50
2023-04-21T20:06:28.968Z,101126.56
2023-04-21T20:08:56.390Z,101298.34
2023-04-21T20:11:23.396Z,101286.50
2023-04-21T20:13:50.418Z,101298.34
2023-04-21T20:16:20.117Z,101310.94
2023-04-21T20:18:47.026Z,101227.81
2023-04-21T20:21:13.729Z,101304.81
2023-04-21T20:23:40.302Z,101154.66
2023-04-21T20:26:06.854Z,101264.03
2023-04-21T20:28:33.531Z,101225.81
2023-04-21T20:31:00.306Z,101303.25
2023-04-21T20:33:27.704Z,101305.97
2023-04-21T20:35:54.530Z,101313.13
2023-04-21T20:38:24.039Z,101217.13
2023-04-21T20:40:52.476Z,101315.84
2023-04-21T20:43:19.501Z,101315.84
2023-04-21T20:45:47.341Z,101315.56
2023-04-21T20:48:13.910Z,101313.69
2023-04-21T20:50:41.294Z,101308.44
2023-04-21T20:53:09.063Z,101312.84
2023-04-21T20:55:36.443Z,101160.28
2023-04-21T20:58:04.239Z,101313.00
2023-04-21T21:00:33.020Z,101310.00
2023-04-21T21:03:00.191Z,101286.19
2023-04-21T21:05:30.559Z,101280.53
2023-04-21T21:07:57.384Z,101294.41
2023-04-21T21:10:23.992Z,101307.41
2023-04-21T21:12:50.578Z,101297.28
2023-04-21T21:15:17.772Z,101238.53
2023-04-21T21:17:44.607Z,101306.25
2023-04-21T21:20:11.753Z,101252.53
2023-04-21T21:22:38.320Z,101302.63
2023-04-21T21:25:05.415Z,101308.47
2023-04-21T21:27:31.991Z,101305.91
2023-04-21T21:29:58.735Z,101300.84
2023-04-21T21:32:25.981Z,101308.56
2023-04-21T21:34:52.608Z,101318.84
2023-04-21T21:37:19.439Z,101312.56
2023-04-21T21:39:46.164Z,101305.66
2023-04-21T21:42:12.887Z,101214.50
2023-04-21T21:44:39.491Z,101299.63
2023-04-21T21:47:06.293Z,101252.78
2023-04-21T21:49:33.853Z,101304.00
2023-04-21T21:52:00.561Z,101311.72
2023-04-21T21:54:27.159Z,101266.97
2023-04-21T21:56:53.811Z,101307.84
2023-04-21T21:59:21.176Z,101311.38
2023-04-21T22:01:48.545Z,101297.00
2023-04-21T22:04:15.245Z,101298.38
2023-04-21T22:06:42.532Z,101300.41
2023-04-21T22:09:09.303Z,101241.69
2023-04-21T22:11:37.148Z,101288.53
2023-04-21T22:14:14.813Z,101296.50
2023-04-21T22:16:48.807Z,101304.88
2023-04-21T22:19:17.816Z,101301.41
2023-04-21T22:21:44.860Z,101296.88
2023-04-21T22:24:11.413Z,101265.13
2023-04-21T22:26:38.067Z,101295.41
2023-04-21T22:29:04.687Z,101306.19
2023-04-21T22:31:31.282Z,101289.34
2023-04-21T22:33:57.984Z,101273.56
2023-04-21T22:36:24.582Z,101297.59
2023-04-21T22:38:51.164Z,101295.81
2023-04-21T22:41:17.847Z,101287.56
2023-04-21T22:43:44.379Z,101293.47
2023-04-21T22:46:10.960Z,101129.03
2023-04-21T22:48:38.425Z,101294.56
2023-04-21T22:51:06.410Z,101265.91
2023-04-21T22:53:33.806Z,101298.56
2023-04-21T22:56:00.437Z,101295.63
2023-04-21T22:58:27.065Z,101258.00
2023-04-21T23:00:53.745Z,101295.03
2023-04-21T23:03:20.569Z,101284.81
2023-04-21T23:05:47.253Z,101278.72
2023-04-21T23:08:13.798Z,101295.19
2023-04-21T23:10:40.673Z,101264.47
2023-04-21T23:13:07.234Z,101230.44
2023-04-21T23:15:33.888Z,101274.03
2023-04-21T23:18:00.621Z,101269.75
2023-04-21T23:20:27.556Z,101255.09
2023-04-21T23:22:54.133Z,101274.94
2023-04-21T23:25:20.941Z,101275.19
2023-04-21T23:27:47.495Z,101268.72
2023-04-21T23:30:14.587Z,101101.25
2023-04-21T23:32:41.744Z,101219.00
2023-04-21T23:35:09.682Z,101269.22
2023-04-21T23:37:36.519Z,101261.59
2023-04-21T23:40:03.322Z,101263.59
2023-04-21T23:42:29.946Z,101199.38
2023-04-21T23:44:56.703Z,101254.41
2023-04-21T23:47:23.365Z,101219.25
2023-04-21T23:49:50.126Z,101259.94
2023-04-21T23:52:16.767Z,101200.63
2023-04-21T23:54:43.370Z,101257.38
2023-04-21T23:57:09.979Z,101241.44
2023-04-21T23:59:36.801Z,101152.22
